Time;durP1;ratioP1;P1;durP2;ratioP2;P2;SDS_P1;SDS_P2;PMS_P1;PMS_P2;Temp;Humidity;BMP_temperature;BMP_pressure;BME280_temperature;BME280_humidity;BME280_pressure;Samples;Min_cycle;Max_cycle;Signal;HPM_P1;HPM_P2
2022/08/06 00:02:06;;;;;;;12.90;11.50;;;;;;;18.14;79.91;98640.67;2305310;77;20925;-81
2022/08/06 00:05:06;;;;;;;12.03;10.63;;;;;;;18.08;79.86;98637.71;2307230;77;21003;-80
2022/08/06 00:08:07;;;;;;;11.80;10.70;;;;;;;18.01;80.11;98634.78;2319183;77;20955;-80
2022/08/06 00:11:07;;;;;;;12.13;10.65;;;;;;;17.97;80.15;98637.52;2319061;77;21295;-80
2022/08/06 00:14:08;;;;;;;14.87;10.63;;;;;;;17.94;80.28;98632.31;2318728;77;20915;-81
2022/08/06 00:17:08;;;;;;;11.88;10.75;;;;;;;17.92;80.42;98636.75;2318802;77;20934;-80
2022/08/06 00:20:08;;;;;;;13.18;11.78;;;;;;;17.92;80.42;98636.30;2318941;77;20945;-81
2022/08/06 00:23:09;;;;;;;12.37;10.55;;;;;;;17.90;80.54;98635.46;2318453;77;20919;-82
2022/08/06 00:26:09;;;;;;;12.60;11.28;;;;;;;17.88;80.66;98632.44;2318380;77;20974;-83
2022/08/06 00:29:10;;;;;;;14.15;11.20;;;;;;;17.83;80.97;98634.72;2318453;77;20919;-80
2022/08/06 00:32:10;;;;;;;12.45;11.20;;;;;;;17.81;81.09;98629.92;2318544;77;20951;-81
2022/08/06 00:35:10;;;;;;;13.53;12.13;;;;;;;17.82;81.32;98631.66;2317506;77;20995;-81
2022/08/06 00:38:11;;;;;;;13.25;11.50;;;;;;;17.81;81.29;98627.28;2318137;77;20955;-80
2022/08/06 00:41:14;;;;;;;121.57;20.27;;;;;;;17.76;81.29;98625.64;2317318;77;20939;-78
2022/08/06 00:44:12;;;;;;;19.87;12.78;;;;;;;17.81;81.69;98635.20;2316495;77;21378;-79
2022/08/06 00:47:12;;;;;;;14.90;11.53;;;;;;;17.82;81.51;98638.27;2316903;77;20958;-80
2022/08/06 00:50:13;;;;;;;44.23;13.15;;;;;;;17.82;81.38;98638.27;2317137;77;20970;-81
2022/08/06 00:53:13;;;;;;;14.58;11.03;;;;;;;17.77;81.65;98644.09;2318264;77;20966;-81
2022/08/06 00:56:13;;;;;;;14.85;10.80;;;;;;;17.73;81.24;98645.50;2318591;77;20963;-80
2022/08/06 00:59:14;;;;;;;12.35;11.03;;;;;;;17.69;81.47;98652.61;2318228;77;20927;-81
2022/08/06 01:02:14;;;;;;;12.13;10.82;;;;;;;17.65;81.28;98651.34;2317809;77;20970;-80
2022/08/06 01:05:15;;;;;;;13.58;11.93;;;;;;;17.62;81.45;98646.13;2316044;77;21433;-80
2022/08/06 01:08:15;;;;;;;12.37;11.12;;;;;;;17.59;81.58;98649.70;2304921;77;21269;-81
2022/08/06 01:11:15;;;;;;;13.00;11.63;;;;;;;17.54;81.61;98652.87;2304769;77;21000;-80
2022/08/06 01:14:16;;;;;;;18.90;11.57;;;;;;;17.51;81.97;98652.48;2304912;77;20976;-81
2022/08/06 01:17:16;;;;;;;15.68;11.38;;;;;;;17.54;82.28;98665.20;2305413;77;20991;-80
2022/08/06 01:20:17;;;;;;;12.55;11.33;;;;;;;17.54;82.19;98662.11;2305705;77;20942;-81
2022/08/06 01:23:17;;;;;;;17.17;12.50;;;;;;;17.49;81.94;98660.01;2305495;77;20929;-81
2022/08/06 01:26:17;;;;;;;11.75;10.58;;;;;;;17.41;81.94;98655.33;2305634;77;20969;-81
2022/08/06 01:29:18;;;;;;;23.50;11.55;;;;;;;17.39;82.20;98654.48;2305514;77;21020;-81
2022/08/06 01:32:18;;;;;;;12.47;11.33;;;;;;;17.36;82.20;98647.50;2304988;77;20945;-80
2022/08/06 01:35:19;;;;;;;22.00;16.75;;;;;;;17.34;82.31;98658.94;2305023;77;21317;-80
2022/08/06 01:38:19;;;;;;;15.43;13.90;;;;;;;17.36;86.08;98694.11;2304933;77;20934;-80
2022/08/06 01:44:38;;;;;;;18.80;13.28;;;;;;;17.53;83.27;98694.67;2304904;77;20962;-79
2022/08/06 01:47:39;;;;;;;23.90;14.45;;;;;;;17.61;82.70;98701.13;2304488;77;20920;-80
2022/08/06 01:50:39;;;;;;;18.12;13.95;;;;;;;17.61;82.17;98687.94;2304637;77;20957;-81
2022/08/06 01:53:40;;;;;;;16.60;15.05;;;;;;;17.58;82.67;98709.98;2304644;77;20928;-81
2022/08/06 01:56:40;;;;;;;19.98;14.45;;;;;;;17.63;82.17;98695.38;2305005;77;20929;-81
2022/08/06 01:59:40;;;;;;;32.20;17.60;;;;;;;17.59;82.00;98705.57;2304731;77;21352;-80
2022/08/06 02:02:41;;;;;;;27.70;15.03;;;;;;;17.61;82.09;98703.33;2304320;77;20948;-80
2022/08/06 02:05:41;;;;;;;23.47;14.45;;;;;;;17.62;81.61;98689.23;2300435;76;20959;-81
2022/08/06 02:08:42;;;;;;;18.45;13.85;;;;;;;17.56;81.25;98690.66;2286621;78;20935;-81
2022/08/06 02:11:42;;;;;;;21.12;14.40;;;;;;;17.56;81.42;98686.70;2285972;78;20915;-80
2022/08/06 02:14:42;;;;;;;17.62;14.03;;;;;;;17.52;81.30;98683.70;2286720;78;20970;-79
2022/08/06 02:17:43;;;;;;;38.85;16.20;;;;;;;17.49;82.16;98693.00;2286943;78;20907;-79
2022/08/06 02:20:43;;;;;;;17.02;15.32;;;;;;;17.46;81.56;98682.50;2286258;78;20962;-78
2022/08/06 02:23:44;;;;;;;21.17;14.75;;;;;;;17.32;81.62;98680.52;2286733;78;20977;-79
2022/08/06 02:26:44;;;;;;;20.72;14.53;;;;;;;17.22;81.84;98679.81;2286423;78;20966;-79
2022/08/06 02:29:44;;;;;;;16.70;13.85;;;;;;;17.19;82.15;98673.27;2286522;78;20919;-78
2022/08/06 02:32:45;;;;;;;20.17;15.13;;;;;;;17.17;82.34;98677.25;2285317;78;20954;-80
2022/08/06 02:35:45;;;;;;;18.75;14.47;;;;;;;17.14;82.51;98685.67;2285078;78;21021;-79
2022/08/06 02:38:46;;;;;;;16.90;15.13;;;;;;;17.09;82.70;98684.88;2285684;78;21286;-80
2022/08/06 02:41:46;;;;;;;18.05;14.98;;;;;;;17.10;83.04;98684.85;2286482;78;20942;-79
2022/08/06 02:44:46;;;;;;;16.05;14.50;;;;;;;17.12;82.63;98686.14;2286809;78;20978;-80
2022/08/06 02:47:47;;;;;;;159.40;22.62;;;;;;;17.11;82.49;98694.50;2285946;78;21310;-81
2022/08/06 02:50:47;;;;;;;19.10;14.00;;;;;;;17.12;82.73;98690.97;2285523;78;21282;-81
2022/08/06 02:53:48;;;;;;;14.87;12.30;;;;;;;17.07;82.45;98689.30;2285652;78;20994;-80
2022/08/06 02:56:50;;;;;;;16.05;13.75;;;;;;;17.00;82.48;98696.45;2286127;78;20903;-80
2022/08/06 02:59:51;;;;;;;15.03;13.53;;;;;;;16.94;82.83;98700.50;2286017;78;21302;-81
2022/08/06 03:02:51;;;;;;;15.23;13.48;;;;;;;16.90;83.06;98694.86;2285808;78;20930;-81
2022/08/06 03:05:52;;;;;;;15.75;13.05;;;;;;;16.90;83.29;98696.17;2291185;77;20995;-81
2022/08/06 03:08:52;;;;;;;14.33;12.85;;;;;;;16.93;83.05;98696.13;2317501;77;20932;-81
2022/08/06 03:11:52;;;;;;;14.98;13.43;;;;;;;16.95;82.94;98698.29;2316665;77;21330;-80
2022/08/06 03:14:53;;;;;;;16.93;13.95;;;;;;;16.94;82.99;98705.77;2316498;77;20978;-80
2022/08/06 03:17:58;;;;;;;20.10;13.65;;;;;;;16.94;83.21;98711.05;2317431;77;20943;-82
2022/08/06 03:20:54;;;;;;;17.82;15.10;;;;;;;16.98;83.12;98708.78;2317377;77;20903;-80
2022/08/06 03:23:55;;;;;;;20.52;18.20;;;;;;;17.05;83.17;98718.34;2317407;77;20935;-81
2022/08/06 03:26:55;;;;;;;23.10;17.75;;;;;;;17.10;84.19;98737.59;2317274;77;20942;-81
2022/08/06 03:29:57;;;;;;;20.15;17.77;;;;;;;17.13;83.72;98740.19;2286688;77;21322;-81
2022/08/06 03:32:58;;;;;;;21.60;18.98;;;;;;;17.16;83.48;98742.77;2317683;77;20920;-83
2022/08/06 03:36:03;;;;;;;18.92;16.32;;;;;;;17.25;84.13;98753.62;2312583;77;20993;-83
2022/08/06 03:39:01;;;;;;;51.05;29.25;;;;;;;17.63;84.17;98759.59;2270287;77;20947;-82
2022/08/06 03:42:07;;;;;;;22.20;17.62;;;;;;;17.73;84.62;98753.73;2307096;77;20946;-82
2022/08/06 03:45:07;;;;;;;23.12;18.55;;;;;;;18.07;82.00;98765.84;2307647;77;20970;-83
2022/08/06 03:48:08;;;;;;;78.05;37.78;;;;;;;17.95;81.28;98798.64;2307248;77;20901;-82
2022/08/06 03:51:08;;;;;;;22.15;19.90;;;;;;;17.75;82.06;98828.49;2307752;77;21399;-84
2022/08/06 03:54:09;;;;;;;29.42;18.82;;;;;;;17.87;82.20;98815.52;2299541;77;20952;-83
2022/08/06 03:57:09;;;;;;;21.37;17.10;;;;;;;17.88;82.29;98798.78;2293427;78;20912;-83
2022/08/06 04:00:09;;;;;;;27.05;18.67;;;;;;;18.01;82.40;98816.14;2292522;78;20927;-83
2022/08/06 04:03:10;;;;;;;21.17;18.55;;;;;;;18.15;82.42;98836.56;2292560;78;20990;-82
2022/08/06 04:06:10;;;;;;;20.55;18.17;;;;;;;18.27;82.30;98839.02;2292879;77;21012;-83
2022/08/06 04:09:11;;;;;;;21.70;17.80;;;;;;;18.50;82.01;98836.37;2292153;78;20924;-84
2022/08/06 04:12:11;;;;;;;19.57;16.80;;;;;;;18.64;81.85;98844.92;2292636;78;20948;-84
2022/08/06 04:15:11;;;;;;;22.17;16.93;;;;;;;18.77;81.65;98851.24;2292043;78;21336;-84
2022/08/06 04:18:15;;;;;;;20.17;17.90;;;;;;;18.88;81.67;98857.63;2291781;78;20951;-84
2022/08/06 04:21:15;;;;;;;18.55;16.40;;;;;;;19.00;81.61;98862.66;2291578;78;20916;-82
2022/08/06 04:24:16;;;;;;;18.82;16.82;;;;;;;19.15;81.62;98873.83;2291957;78;20920;-84
2022/08/06 04:27:16;;;;;;;22.42;16.17;;;;;;;19.29;81.07;98873.07;2291877;77;20951;-79
2022/08/06 04:30:16;;;;;;;17.95;15.88;;;;;;;19.41;81.33;98877.62;2292118;78;20968;-82
2022/08/06 04:33:17;;;;;;;19.02;15.45;;;;;;;19.53;81.00;98866.37;2291780;78;20986;-83
2022/08/06 04:36:17;;;;;;;25.20;15.50;;;;;;;19.63;81.12;98870.08;2291881;78;21022;-83
2022/08/06 04:39:18;;;;;;;16.77;14.25;;;;;;;19.71;81.23;98875.19;2291750;78;21366;-84
2022/08/06 04:42:18;;;;;;;17.10;14.68;;;;;;;19.77;81.69;98871.06;2291696;78;20968;-83
2022/08/06 04:45:18;;;;;;;15.88;14.33;;;;;;;19.81;81.92;98873.19;2291820;78;20948;-83
2022/08/06 04:48:19;;;;;;;18.82;14.13;;;;;;;19.83;82.78;98884.16;2292393;78;20924;-83
2022/08/06 04:51:19;;;;;;;20.32;14.80;;;;;;;19.85;83.44;98889.42;2293466;78;20948;-83
2022/08/06 04:54:20;;;;;;;19.40;14.55;;;;;;;19.92;83.20;98901.60;2293629;78;20943;-82
2022/08/06 04:57:20;;;;;;;16.07;14.47;;;;;;;19.96;83.80;98912.12;2293398;78;20972;-83
2022/08/06 05:00:20;;;;;;;16.37;14.60;;;;;;;20.02;83.79;98912.42;2293342;78;20936;-83
2022/08/06 05:03:24;;;;;;;16.67;14.47;;;;;;;20.15;84.25;98915.17;2293072;78;20963;-83
2022/08/06 05:06:24;;;;;;;16.60;14.95;;;;;;;20.32;84.64;98918.25;2293095;78;21011;-81
2022/08/06 05:09:27;;;;;;;16.20;14.55;;;;;;;20.46;84.64;98923.68;2292672;78;20971;-81
2022/08/06 05:12:27;;;;;;;15.40;13.95;;;;;;;20.57;85.04;98925.13;2292121;78;20979;-81
2022/08/06 05:15:28;;;;;;;18.77;13.75;;;;;;;20.71;85.49;98934.48;2291819;78;20955;-79
2022/08/06 05:18:28;;;;;;;16.40;14.73;;;;;;;20.83;85.37;98932.86;2292164;78;21370;-81
2022/08/06 05:21:28;;;;;;;20.68;14.18;;;;;;;20.96;85.18;98939.09;2292573;78;20928;-80
2022/08/06 05:24:31;;;;;;;14.73;13.43;;;;;;;21.07;84.93;98947.20;2292173;78;20999;-82
2022/08/06 05:27:32;;;;;;;14.23;12.82;;;;;;;21.24;84.37;98930.36;2292392;78;20924;-82
2022/08/06 05:30:33;;;;;;;16.42;13.15;;;;;;;21.42;83.91;98936.44;2292182;78;20983;-81
2022/08/06 05:33:36;;;;;;;13.83;12.47;;;;;;;21.53;83.39;98938.31;2292255;78;20924;-80
2022/08/06 05:36:37;;;;;;;15.45;13.25;;;;;;;21.55;83.18;98951.08;2291336;78;21075;-81
2022/08/06 05:39:37;;;;;;;14.83;13.00;;;;;;;21.58;82.99;98941.69;2291772;78;20997;-81
2022/08/06 05:42:38;;;;;;;13.00;11.83;;;;;;;21.57;83.07;98953.69;2291637;78;20955;-81
2022/08/06 05:45:38;;;;;;;18.15;12.85;;;;;;;21.58;82.94;98957.63;2291568;78;20968;-83
2022/08/06 05:48:38;;;;;;;12.63;11.43;;;;;;;21.58;82.75;98959.41;2290889;78;20963;-82
2022/08/06 05:51:39;;;;;;;13.48;11.50;;;;;;;21.58;82.82;98960.28;2291352;78;21357;-81
2022/08/06 05:54:39;;;;;;;15.85;11.10;;;;;;;21.68;82.50;98968.00;2291098;78;20976;-81
2022/08/06 05:57:39;;;;;;;13.60;10.65;;;;;;;21.78;81.47;98983.61;2291176;78;20974;-82
2022/08/06 06:00:40;;;;;;;11.70;10.63;;;;;;;21.79;81.12;98991.12;2291598;78;20963;-83
2022/08/06 06:03:40;;;;;;;14.10;10.55;;;;;;;21.76;80.48;98999.19;2291937;78;21008;-80
2022/08/06 06:06:41;;;;;;;20.92;10.50;;;;;;;21.60;81.12;99010.70;2289344;78;21011;-81
2022/08/06 06:09:41;;;;;;;13.25;10.00;;;;;;;21.66;80.23;99004.34;2291481;78;21355;-81
2022/08/06 06:12:41;;;;;;;22.30;9.40;;;;;;;21.87;79.76;99010.35;2291163;78;21000;-81
2022/08/06 06:15:42;;;;;;;10.55;9.73;;;;;;;21.93;78.95;99007.50;2291351;78;20924;-82
2022/08/06 06:18:42;;;;;;;10.30;8.98;;;;;;;21.98;78.78;99008.23;2291269;78;20952;-83
2022/08/06 06:21:43;;;;;;;22.98;9.20;;;;;;;22.04;78.59;99019.16;2290907;78;20975;-81
2022/08/06 06:24:43;;;;;;;12.53;8.85;;;;;;;22.01;77.87;99030.72;2291188;78;20924;-80
2022/08/06 06:27:43;;;;;;;9.58;8.68;;;;;;;22.00;77.91;99029.44;2290927;78;21397;-81
2022/08/06 06:30:44;;;;;;;13.38;8.98;;;;;;;21.96;77.86;99039.76;2290310;78;20928;-81
2022/08/06 06:33:44;;;;;;;9.68;8.95;;;;;;;21.89;77.73;99044.39;2290189;78;20965;-80
2022/08/06 06:36:45;;;;;;;14.93;9.20;;;;;;;21.86;78.48;99047.14;2290253;78;21331;-83
2022/08/06 06:39:45;;;;;;;9.15;8.33;;;;;;;21.87;78.51;99054.20;2290044;78;20980;-82
2022/08/06 06:42:46;;;;;;;9.65;8.80;;;;;;;21.87;78.29;99063.04;2290095;78;20924;-81
2022/08/06 06:45:46;;;;;;;9.50;8.60;;;;;;;21.85;78.16;99054.70;2290004;78;20943;-82
2022/08/06 06:48:47;;;;;;;8.88;8.18;;;;;;;21.86;77.84;99065.28;2290275;78;20927;-83
2022/08/06 06:51:47;;;;;;;9.08;8.20;;;;;;;21.87;77.94;99067.48;2290799;78;20959;-82
2022/08/06 06:54:47;;;;;;;8.40;7.67;;;;;;;21.92;78.06;99081.50;2290501;78;20923;-82
2022/08/06 06:57:48;;;;;;;8.68;7.80;;;;;;;21.92;77.69;99086.81;2291326;78;20957;-81
2022/08/06 07:00:48;;;;;;;10.08;7.75;;;;;;;21.92;77.74;99089.48;2292064;78;21013;-82
2022/08/06 07:03:49;;;;;;;12.33;7.87;;;;;;;21.87;77.49;99093.60;2291284;78;20897;-81
2022/08/06 07:06:51;;;;;;;11.10;7.30;;;;;;;21.91;77.63;99098.37;2290343;78;20944;-83
2022/08/06 07:09:50;;;;;;;8.73;7.28;;;;;;;22.00;77.41;99107.39;2290830;78;20908;-83
2022/08/06 07:12:50;;;;;;;12.93;8.55;;;;;;;21.94;77.15;99105.79;2291547;78;20966;-82
2022/08/06 07:15:50;;;;;;;8.40;7.60;;;;;;;21.84;77.58;99111.42;2290455;78;21371;-81
2022/08/06 07:18:52;;;;;;;10.18;6.70;;;;;;;21.95;77.76;99113.30;2290814;78;20939;-82
2022/08/06 07:21:51;;;;;;;9.20;7.00;;;;;;;21.98;77.00;99117.20;2290788;78;20920;-83
2022/08/06 07:24:52;;;;;;;8.08;6.92;;;;;;;22.15;76.95;99124.23;2290078;78;21335;-82
2022/08/06 07:27:52;;;;;;;7.87;7.08;;;;;;;22.20;76.45;99130.74;2290604;78;20987;-82
2022/08/06 07:30:53;;;;;;;7.28;6.60;;;;;;;22.41;76.00;99135.85;2290630;78;20955;-81
2022/08/06 07:33:53;;;;;;;6.83;6.30;;;;;;;22.65;74.98;99143.55;2290838;78;20881;-83
2022/08/06 07:36:54;;;;;;;7.58;6.60;;;;;;;22.76;74.26;99150.26;2290174;78;20956;-81
2022/08/06 07:39:54;;;;;;;6.97;6.40;;;;;;;22.88;73.47;99149.89;2291755;78;20924;-82
2022/08/06 07:42:55;;;;;;;8.95;6.05;;;;;;;23.05;72.61;99159.10;2291348;78;21353;-81
2022/08/06 07:45:55;;;;;;;6.78;6.17;;;;;;;23.25;72.04;99171.73;2291083;78;20943;-81
2022/08/06 07:48:55;;;;;;;7.55;6.00;;;;;;;23.17;71.50;99172.00;2290579;78;20916;-82
2022/08/06 07:51:56;;;;;;;6.25;5.75;;;;;;;23.11;71.48;99172.21;2290692;78;20920;-83
2022/08/06 07:54:56;;;;;;;6.70;5.35;;;;;;;23.13;71.62;99167.23;2290772;78;20920;-80
2022/08/06 07:57:57;;;;;;;6.20;5.60;;;;;;;23.17;70.38;99176.00;2291226;78;20984;-81
2022/08/06 08:00:57;;;;;;;7.20;5.28;;;;;;;23.34;69.87;99178.08;2291242;78;20952;-81
2022/08/06 08:07:16;;;;;;;5.25;4.55;;;;;;;23.58;68.48;99179.95;2289721;78;20987;-82
2022/08/06 08:10:17;;;;;;;5.58;4.25;;;;;;;23.68;67.86;99187.16;2290674;78;21300;-82
2022/08/06 08:13:18;;;;;;;5.22;4.25;;;;;;;23.43;67.09;99195.98;2290474;78;20999;-81
2022/08/06 08:16:18;;;;;;;5.10;4.70;;;;;;;23.16;67.93;99204.88;2289646;78;20971;-81
2022/08/06 08:19:18;;;;;;;6.87;4.87;;;;;;;23.02;68.59;99207.13;2289941;78;20939;-82
2022/08/06 08:22:18;;;;;;;5.78;5.17;;;;;;;22.94;69.31;99207.38;2290483;78;20909;-82
2022/08/06 08:25:19;;;;;;;4.78;4.37;;;;;;;23.12;69.46;99220.55;2290210;78;20994;-82
2022/08/06 08:28:19;;;;;;;6.65;4.42;;;;;;;23.43;68.64;99221.28;2290598;78;20984;-81
2022/08/06 08:31:20;;;;;;;4.40;4.00;;;;;;;23.56;66.94;99226.23;2291131;78;20911;-81
2022/08/06 08:34:20;;;;;;;6.67;4.28;;;;;;;23.34;67.80;99234.89;2291142;78;20951;-81
2022/08/06 08:37:20;;;;;;;4.28;3.98;;;;;;;23.22;68.09;99239.30;2290293;78;20967;-82
2022/08/06 08:40:21;;;;;;;4.50;4.10;;;;;;;23.16;68.48;99239.49;2290247;78;20936;-83
2022/08/06 08:43:21;;;;;;;9.80;4.30;;;;;;;23.14;68.58;99240.00;2290587;78;20952;-81
2022/08/06 08:46:22;;;;;;;4.97;4.47;;;;;;;23.38;68.20;99239.65;2290122;78;21367;-81
2022/08/06 08:49:22;;;;;;;6.25;5.70;;;;;;;23.71;67.21;99239.02;2290064;78;20960;-80
2022/08/06 08:52:22;;;;;;;7.87;3.60;;;;;;;24.00;66.08;99237.51;2291123;78;20914;-81
2022/08/06 08:55:23;;;;;;;4.67;3.67;;;;;;;24.36;64.71;99238.00;2290661;78;21264;-83
2022/08/06 08:58:23;;;;;;;4.05;3.75;;;;;;;24.02;64.45;99251.66;2290055;78;20952;-82
2022/08/06 09:01:24;;;;;;;3.90;3.58;;;;;;;23.64;65.86;99257.47;2290076;78;20967;-81
2022/08/06 09:04:24;;;;;;;4.45;3.27;;;;;;;23.47;66.81;99260.22;2289795;78;20920;-79
2022/08/06 09:07:26;;;;;;;3.90;3.42;;;;;;;23.18;67.60;99267.81;2290231;78;21376;-82
2022/08/06 09:10:25;;;;;;;5.65;3.42;;;;;;;22.84;68.66;99261.36;2290652;78;20955;-82
2022/08/06 09:13:25;;;;;;;8.60;3.77;;;;;;;22.60;69.81;99279.38;2290562;78;20960;-80
2022/08/06 09:16:27;;;;;;;3.80;3.50;;;;;;;22.41;71.39;99280.81;2290079;78;20947;-82
2022/08/06 09:19:29;;;;;;;4.05;3.67;;;;;;;22.15;72.10;99285.09;2289962;78;21326;-81
2022/08/06 09:22:28;;;;;;;2.90;2.70;;;;;;;21.93;73.53;99293.20;2290392;78;20924;-82
2022/08/06 09:25:28;;;;;;;5.70;2.72;;;;;;;21.78;74.50;99297.60;2290132;78;20971;-82
2022/08/06 09:28:28;;;;;;;7.37;2.87;;;;;;;21.54;75.53;99303.05;2291110;78;21328;-81
2022/08/06 09:31:29;;;;;;;4.85;3.27;;;;;;;21.41;77.97;99316.22;2291297;78;20967;-82
2022/08/06 09:34:29;;;;;;;3.90;3.12;;;;;;;21.22;79.16;99327.70;2292297;78;20944;-83
2022/08/06 09:37:30;;;;;;;2.65;2.45;;;;;;;21.08;80.83;99325.83;2292348;78;21451;-83
2022/08/06 09:40:30;;;;;;;2.42;2.27;;;;;;;20.84;82.06;99320.16;2292029;78;20935;-84
2022/08/06 09:43:30;;;;;;;2.72;2.37;;;;;;;20.66;83.48;99325.39;2291095;78;20904;-86
2022/08/06 09:46:31;;;;;;;5.90;3.12;;;;;;;20.50;85.13;99323.96;2290290;78;20939;-86
2022/08/06 09:49:31;;;;;;;7.03;3.27;;;;;;;20.46;86.08;99316.10;2290840;78;20917;-84
2022/08/06 09:52:32;;;;;;;5.22;3.35;;;;;;;20.55;87.20;99308.83;2290865;78;20991;-85
2022/08/06 09:55:33;;;;;;;2.92;2.70;;;;;;;20.61;87.92;99310.02;2290708;78;20956;-84
2022/08/06 09:58:34;;;;;;;2.72;2.52;;;;;;;20.48;88.08;99311.64;2291288;78;21371;-85
2022/08/06 10:01:33;;;;;;;3.22;2.30;;;;;;;20.39;88.63;99310.05;2290320;78;20967;-84
2022/08/06 10:04:33;;;;;;;2.77;1.95;;;;;;;20.25;89.78;99317.38;2290770;78;20988;-85
2022/08/06 10:07:34;;;;;;;2.20;2.10;;;;;;;20.10;91.38;99317.22;2291398;77;21402;-83
2022/08/06 10:10:34;;;;;;;2.15;1.87;;;;;;;19.98;92.48;99314.80;2290795;78;20947;-84
2022/08/06 10:13:34;;;;;;;3.15;2.00;;;;;;;19.85;92.51;99314.13;2291170;78;20955;-85
2022/08/06 10:16:36;;;;;;;1.92;1.80;;;;;;;19.77;93.47;99329.73;2291504;78;20889;-84
2022/08/06 10:19:38;;;;;;;2.65;1.82;;;;;;;19.72;93.56;99332.01;2290843;78;20964;-84
2022/08/06 10:22:39;;;;;;;2.00;1.90;;;;;;;19.61;93.88;99343.23;2290416;78;20908;-85
2022/08/06 10:25:39;;;;;;;1.90;1.80;;;;;;;19.56;94.67;99339.79;2290680;78;20947;-85
2022/08/06 10:28:39;;;;;;;1.82;1.70;;;;;;;19.60;93.92;99343.27;2290503;78;20936;-84
2022/08/06 10:31:40;;;;;;;1.70;1.60;;;;;;;19.59;94.05;99350.33;2290233;78;21349;-85
2022/08/06 10:34:40;;;;;;;1.80;1.70;;;;;;;19.65;93.37;99361.27;2290554;78;20921;-86
2022/08/06 10:37:41;;;;;;;1.85;1.75;;;;;;;19.62;92.93;99364.84;2290673;78;20987;-85
2022/08/06 10:40:41;;;;;;;3.17;2.00;;;;;;;19.70;93.01;99370.89;2290423;78;20972;-84
2022/08/06 10:43:41;;;;;;;2.05;1.80;;;;;;;19.68;93.02;99381.08;2290655;78;20966;-84
2022/08/06 10:46:42;;;;;;;2.33;2.12;;;;;;;19.61;93.20;99378.98;2290496;78;20955;-85
2022/08/06 10:49:42;;;;;;;2.55;1.87;;;;;;;19.61;92.87;99385.61;2290457;78;21339;-84
2022/08/06 10:52:43;;;;;;;1.75;1.65;;;;;;;19.54;91.84;99386.60;2290409;78;20947;-84
2022/08/06 10:55:43;;;;;;;1.72;1.62;;;;;;;19.43;92.50;99388.95;2291081;78;20952;-84
2022/08/06 10:58:44;;;;;;;1.60;1.50;;;;;;;19.33;92.11;99390.87;2291513;78;20936;-84
2022/08/06 11:01:44;;;;;;;1.77;1.67;;;;;;;19.26;92.42;99389.21;2290979;78;20916;-84
2022/08/06 11:04:44;;;;;;;1.70;1.60;;;;;;;19.16;92.46;99391.56;2291916;78;20932;-84
2022/08/06 11:07:45;;;;;;;1.80;1.70;;;;;;;19.07;92.99;99398.73;2289843;78;21092;-85
2022/08/06 11:10:45;;;;;;;2.02;1.80;;;;;;;19.09;93.08;99402.23;2280759;78;20898;-85
2022/08/06 11:13:46;;;;;;;1.98;1.75;;;;;;;19.07;92.67;99402.70;2281654;78;20903;-85
2022/08/06 11:16:46;;;;;;;1.90;1.80;;;;;;;19.14;93.04;99399.97;2280509;78;21325;-84
2022/08/06 11:19:46;;;;;;;1.72;1.62;;;;;;;19.13;92.06;99404.84;2280513;78;20950;-84
2022/08/06 11:22:47;;;;;;;1.62;1.60;;;;;;;18.98;92.57;99404.11;2280425;77;20973;-86
2022/08/06 11:25:47;;;;;;;1.90;1.80;;;;;;;19.05;91.81;99407.10;2281162;78;20977;-85
2022/08/06 11:28:48;;;;;;;1.75;1.60;;;;;;;18.96;92.26;99407.23;2281208;78;20978;-84
2022/08/06 11:31:48;;;;;;;2.15;2.00;;;;;;;18.82;92.34;99422.40;2281067;78;20922;-85
2022/08/06 11:34:48;;;;;;;3.22;2.92;;;;;;;18.76;92.29;99440.98;2281957;78;20957;-85
2022/08/06 11:37:49;;;;;;;2.17;2.00;;;;;;;18.75;92.70;99436.59;2282810;78;20938;-84
2022/08/06 11:40:49;;;;;;;5.45;1.92;;;;;;;18.68;92.20;99432.27;2282710;78;20949;-84
2022/08/06 11:43:50;;;;;;;3.62;3.42;;;;;;;18.61;92.36;99438.06;2282573;78;20899;-83
2022/08/06 11:46:50;;;;;;;5.97;4.97;;;;;;;18.59;92.46;99436.30;2282197;78;20985;-84
2022/08/06 11:49:50;;;;;;;2.00;1.60;;;;;;;18.71;93.14;99434.42;2282443;78;21258;-84
2022/08/06 11:52:51;;;;;;;1.95;1.85;;;;;;;18.71;91.69;99440.16;2281633;78;20946;-87
2022/08/06 11:55:51;;;;;;;2.30;2.10;;;;;;;18.63;91.93;99438.92;2282093;78;21310;-86
2022/08/06 11:58:52;;;;;;;9.00;4.90;;;;;;;18.66;92.16;99440.21;2281382;78;21341;-84
2022/08/06 12:01:52;;;;;;;2.55;2.20;;;;;;;18.63;92.29;99437.61;2281433;78;20910;-83
2022/08/06 12:04:52;;;;;;;3.67;2.50;;;;;;;18.65;92.69;99441.55;2281928;78;20977;-85
2022/08/06 12:07:53;;;;;;;10.00;5.80;;;;;;;18.75;92.22;99441.88;2278951;77;20934;-85
2022/08/06 12:10:53;;;;;;;3.10;1.60;;;;;;;18.86;91.55;99449.23;2249520;79;20912;-85
2022/08/06 12:13:54;;;;;;;1.70;1.60;;;;;;;18.93;89.15;99444.30;2248819;78;20948;-84
2022/08/06 12:16:55;;;;;;;2.40;2.20;;;;;;;18.84;88.86;99440.45;2247964;78;20955;-85
2022/08/06 12:19:54;;;;;;;1.95;1.82;;;;;;;18.91;88.99;99431.54;2247790;78;20919;-85
2022/08/06 12:22:55;;;;;;;1.80;1.70;;;;;;;19.13;88.40;99433.94;2248101;78;20994;-86
2022/08/06 12:25:55;;;;;;;1.77;1.50;;;;;;;19.60;87.28;99423.58;2248165;78;21043;-86
2022/08/06 12:28:56;;;;;;;2.20;2.00;;;;;;;19.82;84.95;99435.16;2247676;78;20974;-85
2022/08/06 12:31:56;;;;;;;3.42;2.05;;;;;;;19.96;83.94;99445.11;2247739;79;21327;-86
2022/08/06 12:34:57;;;;;;;3.55;2.37;;;;;;;19.68;82.56;99447.30;2248280;78;20912;-87
2022/08/06 12:37:57;;;;;;;1.92;1.82;;;;;;;19.44;84.03;99459.09;2248667;78;20987;-85
2022/08/06 12:40:57;;;;;;;2.92;2.17;;;;;;;19.27;83.92;99450.51;2248899;78;20988;-85
2022/08/06 12:43:58;;;;;;;10.58;5.60;;;;;;;19.20;85.27;99456.34;2249685;78;20896;-85
2022/08/06 12:46:58;;;;;;;4.67;3.08;;;;;;;19.18;85.42;99467.84;2249442;78;20963;-87
2022/08/06 12:49:58;;;;;;;5.95;3.00;;;;;;;18.96;84.16;99470.72;2249879;78;20932;-84
2022/08/06 12:52:59;;;;;;;2.10;2.00;;;;;;;18.76;85.43;99474.05;2250344;78;20932;-84
2022/08/06 12:55:59;;;;;;;2.08;1.90;;;;;;;18.64;85.16;99477.70;2249538;78;20936;-85
2022/08/06 12:59:00;;;;;;;2.80;2.52;;;;;;;18.58;85.26;99476.85;2250039;78;20959;-85
2022/08/06 13:02:00;;;;;;;2.62;1.90;;;;;;;18.64;86.27;99475.05;2250256;79;20920;-84
2022/08/06 13:05:00;;;;;;;4.53;2.58;;;;;;;18.66;85.66;99479.00;2250448;78;20947;-85
2022/08/06 13:08:01;;;;;;;3.52;2.45;;;;;;;18.67;86.03;99478.11;2249841;77;20998;-86
2022/08/06 13:11:01;;;;;;;2.85;2.55;;;;;;;18.72;86.32;99478.48;2249723;78;20927;-85
2022/08/06 13:14:06;;;;;;;4.92;2.62;;;;;;;18.73;85.81;99484.20;2250245;79;20967;-85
2022/08/06 13:17:02;;;;;;;2.80;2.30;;;;;;;18.66;85.39;99483.84;2250325;78;20960;-85
2022/08/06 13:20:03;;;;;;;2.85;2.52;;;;;;;18.65;85.43;99493.98;2250231;78;21007;-85
2022/08/06 13:23:03;;;;;;;3.08;2.62;;;;;;;18.54;85.72;99487.91;2248866;79;20936;-84
2022/08/06 13:26:03;;;;;;;4.70;3.08;;;;;;;18.55;86.79;99489.66;2249087;79;20964;-85
2022/08/06 13:29:04;;;;;;;7.42;3.92;;;;;;;18.63;86.94;99487.84;2249933;79;20901;-83
2022/08/06 13:32:04;;;;;;;4.15;3.05;;;;;;;18.59;86.36;99493.14;2250319;78;20900;-85
2022/08/06 13:35:06;;;;;;;6.65;3.08;;;;;;;18.55;86.44;99502.00;2250208;78;21007;-85
2022/08/06 13:38:05;;;;;;;5.28;3.10;;;;;;;18.37;85.59;99499.96;2250182;79;20943;-85
2022/08/06 13:41:05;;;;;;;8.93;3.15;;;;;;;18.30;85.97;99504.00;2249217;78;21353;-85
2022/08/06 13:44:06;;;;;;;3.42;2.98;;;;;;;18.32;86.35;99504.41;2248950;78;20999;-83
2022/08/06 13:47:06;;;;;;;6.08;3.42;;;;;;;18.43;85.81;99508.28;2248567;79;20947;-85
2022/08/06 13:50:07;;;;;;;4.15;3.12;;;;;;;18.53;85.47;99515.68;2248857;78;20923;-84
2022/08/06 13:53:07;;;;;;;3.90;3.25;;;;;;;18.58;85.08;99511.22;2248746;78;21347;-82
2022/08/06 13:56:07;;;;;;;3.37;3.05;;;;;;;18.70;84.48;99517.30;2248963;78;21015;-82
2022/08/06 13:59:08;;;;;;;4.83;3.55;;;;;;;18.69;84.66;99519.95;2249472;78;20932;-82
2022/08/06 14:02:08;;;;;;;7.25;3.60;;;;;;;18.68;84.71;99520.41;2249634;78;21308;-83
2022/08/06 14:05:09;;;;;;;4.35;3.10;;;;;;;18.71;85.15;99518.17;2249575;79;20985;-84
2022/08/06 14:08:09;;;;;;;3.25;2.92;;;;;;;18.75;84.33;99522.09;2249976;77;20920;-83